| time (UTC) | temp C | wind direction | speed KPH | gust KPH | rain 1hr cm | rain 24hr cm | rain mn cm | humidity % | barometer mb |
| 20260510204547 | 20 | 10 | 1.6 | 6.4 | 0.00 | 0.00 | 0.00 | 36 | 1016.0 |
| 20260510203046 | 20 | 341 | 0.0 | 8.0 | 0.00 | 0.00 | 0.00 | 36 | 1016.0 |
| 20260510201544 | 20 | 101 | 0.0 | 4.8 | 0.00 | 0.00 | 0.00 | 35 | 1015.9 |
| 20260510200044 | 19 | 76 | 0.0 | 8.0 | 0.00 | 0.00 | 0.00 | 37 | 1016.1 |
| 20260510194539 | 18 | 333 | 0.0 | 4.8 | 0.00 | 0.00 | 0.00 | 38 | 1016.1 |
| 20260510193052 | 18 | 134 | 1.6 | 11.3 | 0.00 | 0.00 | 0.00 | 36 | 1016.1 |
| 20260510191537 | 18 | 25 | 0.0 | 6.4 | 0.00 | 0.00 | 0.00 | 37 | 1016.2 |
| 20260510190036 | 18 | 101 | 0.0 | 9.7 | 0.00 | 0.00 | 0.00 | 40 | 1016.3 |
| 20260510184534 | 17 | 92 | 0.0 | 4.8 | 0.00 | 0.00 | 0.00 | 41 | 1016.4 |
| 20260510183037 | 17 | 132 | 0.0 | 9.7 | 0.00 | 0.00 | 0.00 | 41 | 1016.5 |
| 20260510181529 | 17 | 355 | 0.0 | 3.2 | 0.00 | 0.00 | 0.00 | 41 | 1016.6 |
| 20260510180043 | 17 | 87 | 0.0 | 6.4 | 0.00 | 0.00 | 0.00 | 42 | 1016.8 |
| 20260510174526 | 17 | 76 | 0.0 | 3.2 | 0.00 | 0.00 | 0.00 | 44 | 1016.7 |
| 20260510173023 | 16 | 34 | 0.0 | 6.4 | 0.00 | 0.00 | 0.00 | 46 | 1016.8 |
| 20260510171521 | 16 | 76 | 0.0 | 4.8 | 0.00 | 0.00 | 0.00 | 48 | 1016.6 |
| 20260510170018 | 16 | 88 | 0.0 | 11.3 | 0.00 | 0.00 | 0.00 | 48 | 1016.7 |
| 20260510164529 | 15 | 349 | 0.0 | 4.8 | 0.00 | 0.00 | 0.00 | 50 | 1016.6 |
| 20260510163017 | 15 | 319 | 0.0 | 0.0 | 0.00 | 0.00 | 0.00 | 56 | 1016.7 |
| 20260510161513 | 15 | 205 | 0.0 | 8.0 | 0.00 | 0.00 | 0.00 | 59 | 1016.7 |
| 20260510154508 | 14 | 113 | 0.0 | 3.2 | 0.00 | 0.00 | 0.00 | 61 | 1016.5 |
| 20260510153004 | 13 | 75 | 0.0 | 6.4 | 0.00 | 0.00 | 0.00 | 63 | 1016.5 |
| 20260510151600 | 12 | 124 | 0.0 | 0.0 | 0.00 | 0.00 | 0.00 | 65 | 1016.3 |
| 20260510150058 | 12 | 115 | 0.0 | 0.0 | 0.00 | 0.00 | 0.00 | 66 | 1016.2 |
| 20260510144554 | 12 | 121 | 0.0 | 0.0 | 0.00 | 0.00 | 0.00 | 70 | 1016.3 |
| 20260510143052 | 11 | 121 | 0.0 | 0.0 | 0.00 | 0.00 | 0.00 | 73 | 1016.3 |
| 20260510141546 | 10 | 158 | 0.0 | 3.2 | 0.00 | 0.00 | 0.00 | 76 | 1016.4 |
| 20260510140045 | 10 | 193 | 0.0 | 3.2 | 0.00 | 0.00 | 0.00 | 80 | 1016.3 |
| 20260510134542 | 8 | 199 | 0.0 | 0.0 | 0.00 | 0.00 | 0.00 | 83 | 1016.3 |
| 20260510133041 | 8 | 205 | 0.0 | 0.0 | 0.00 | 0.00 | 0.00 | 84 | 1016.6 |
| 20260510131541 | 8 | 15 | 0.0 | 0.0 | 0.00 | 0.00 | 0.00 | 84 | 1016.6 |
| 20260510130039 | 8 | 15 | 0.0 | 0.0 | 0.00 | 0.00 | 0.00 | 84 | 1016.7 |
| 20260510124558 | 8 | 15 | 0.0 | 0.0 | 0.00 | 0.00 | 0.00 | 83 | 1016.7 |
| 20260510123038 | 8 | 15 | 0.0 | 0.0 | 0.00 | 0.00 | 0.00 | 82 | 1016.7 |
| 20260510121536 | 8 | 63 | 0.0 | 0.0 | 0.00 | 0.00 | 0.00 | 80 | 1016.5 |
| 20260510120034 | 8 | 63 | 0.0 | 0.0 | 0.00 | 0.00 | 0.00 | 80 | 1016.4 |
| 20260510114532 | 8 | 63 | 0.0 | 0.0 | 0.00 | 0.00 | 0.00 | 78 | 1016.1 |
| 20260510113034 | 8 | 63 | 0.0 | 0.0 | 0.00 | 0.00 | 0.00 | 77 | 1015.9 |
| 20260510111547 | 8 | 63 | 0.0 | 0.0 | 0.00 | 0.00 | 0.00 | 77 | 1015.9 |
| 20260510110027 | 8 | 62 | 0.0 | 0.0 | 0.00 | 0.00 | 0.00 | 76 | 1015.8 |
| 20260510104537 | 8 | 62 | 0.0 | 0.0 | 0.00 | 0.00 | 0.00 | 77 | 1015.6 |
| 20260510103031 | 8 | 62 | 0.0 | 0.0 | 0.00 | 0.00 | 0.00 | 76 | 1015.3 |
| 20260510101521 | 8 | 62 | 0.0 | 0.0 | 0.00 | 0.00 | 0.00 | 75 | 1015.2 |
| 20260510100019 | 8 | 62 | 0.0 | 0.0 | 0.00 | 0.00 | 0.00 | 75 | 1014.9 |
| 20260510094518 | 8 | 62 | 0.0 | 0.0 | 0.00 | 0.00 | 0.00 | 74 | 1014.9 |
| 20260510093018 | 8 | 62 | 0.0 | 0.0 | 0.00 | 0.00 | 0.00 | 75 | 1014.8 |
| 20260510091540 | 8 | 62 | 0.0 | 0.0 | 0.00 | 0.00 | 0.00 | 75 | 1014.7 |
| 20260510090016 | 8 | 62 | 0.0 | 0.0 | 0.00 | 0.00 | 0.00 | 75 | 1014.5 |
| 20260510084615 | 8 | 62 | 0.0 | 0.0 | 0.00 | 0.00 | 0.00 | 74 | 1014.3 |
| 20260510083015 | 8 | 61 | 0.0 | 0.0 | 0.00 | 0.00 | 0.00 | 74 | 1014.3 |
| 20260510081530 | 8 | 61 | 0.0 | 0.0 | 0.00 | 0.00 | 0.00 | 74 | 1014.1 |
| 20260510080013 | 8 | 60 | 0.0 | 0.0 | 0.00 | 0.00 | 0.00 | 75 | 1014.2 |
| 20260510074510 | 8 | 60 | 0.0 | 0.0 | 0.00 | 0.00 | 0.00 | 75 | 1014.5 |
| 20260510073011 | 8 | 59 | 0.0 | 0.0 | 0.00 | 0.00 | 0.00 | 74 | 1014.6 |
| 20260510071511 | 9 | 59 | 0.0 | 0.0 | 0.00 | 0.00 | 0.00 | 73 | 1014.7 |
| 20260510070008 | 9 | 59 | 0.0 | 0.0 | 0.00 | 0.00 | 0.00 | 73 | 1014.8 |
| 20260510064514 | 9 | 59 | 0.0 | 0.0 | 0.00 | 0.00 | 0.00 | 73 | 1014.7 |
| 20260510063006 | 9 | 59 | 0.0 | 0.0 | 0.00 | 0.00 | 0.00 | 73 | 1014.9 |
| 20260510061502 | 9 | 59 | 0.0 | 0.0 | 0.00 | 0.00 | 0.00 | 72 | 1014.9 |
| 20260510060057 | 9 | 59 | 0.0 | 0.0 | 0.00 | 0.00 | 0.00 | 71 | 1014.7 |
| 20260510054600 | 9 | 59 | 0.0 | 0.0 | 0.00 | 0.00 | 0.00 | 70 | 1014.7 |
| 20260510053056 | 10 | 60 | 0.0 | 0.0 | 0.00 | 0.00 | 0.00 | 69 | 1014.8 |
| 20260510051606 | 10 | 60 | 0.0 | 0.0 | 0.00 | 0.00 | 0.00 | 69 | 1014.6 |
| 20260510050058 | 10 | 59 | 0.0 | 0.0 | 0.00 | 0.00 | 0.00 | 70 | 1014.8 |
| 20260510044607 | 10 | 59 | 0.0 | 0.0 | 0.00 | 0.00 | 0.00 | 69 | 1015.0 |
| 20260510043054 | 10 | 59 | 0.0 | 0.0 | 0.00 | 0.00 | 0.00 | 68 | 1014.8 |
| 20260510041605 | 10 | 17 | 0.0 | 0.0 | 0.00 | 0.00 | 0.00 | 68 | 1014.8 |
| 20260510040053 | 10 | 24 | 0.0 | 0.0 | 0.00 | 0.00 | 0.00 | 68 | 1014.8 |
| 20260510034558 | 10 | 24 | 0.0 | 0.0 | 0.00 | 0.00 | 0.00 | 67 | 1014.6 |
| 20260510033050 | 10 | 24 | 0.0 | 8.0 | 0.00 | 0.00 | 0.00 | 67 | 1014.5 |
| 20260510031556 | 10 | 344 | 0.0 | 14.5 | 0.00 | 0.00 | 0.00 | 67 | 1014.2 |
| 20260510030055 | 10 | 319 | 1.6 | 19.3 | 0.00 | 0.00 | 0.00 | 67 | 1013.5 |
| 20260510024548 | 10 | 323 | 4.8 | 25.7 | 0.00 | 0.00 | 0.00 | 68 | 1012.3 |
| 20260510021535 | 11 | 355 | 4.8 | 22.5 | 0.00 | 0.00 | 0.00 | 67 | 1010.8 |
| 20260510020034 | 11 | 344 | 6.4 | 22.5 | 0.00 | 0.00 | 0.00 | 65 | 1010.4 |
| 20260510014532 | 12 | 92 | 1.6 | 27.4 | 0.00 | 0.00 | 0.00 | 63 | 1009.9 |
| 20260510013029 | 12 | 345 | 4.8 | 22.5 | 0.00 | 0.00 | 0.00 | 60 | 1009.0 |
| 20260510011528 | 13 | 44 | 4.8 | 30.6 | 0.00 | 0.00 | 0.00 | 56 | 1008.2 |
| 20260510010024 | 16 | 56 | 8.0 | 30.6 | 0.00 | 0.00 | 0.00 | 49 | 1007.2 |
| 20260510004522 | 21 | 5 | 9.7 | 30.6 | 0.00 | 0.00 | 0.00 | 34 | 1006.1 |
| 20260510003021 | 23 | 61 | 0.0 | 3.2 | 0.00 | 0.00 | 0.00 | 21 | 1004.4 |
| 20260510001520 | 22 | 76 | 0.0 | 0.0 | 0.00 | 0.00 | 0.00 | 21 | 1004.0 |
| 20260510000020 | 22 | 76 | 0.0 | 0.0 | 0.00 | 0.00 | 0.00 | 22 | 1003.8 |
| 20260509234533 | 23 | 61 | 0.0 | 0.0 | 0.00 | 0.00 | 0.00 | 22 | 1003.8 |
| 20260509233031 | 22 | 54 | 0.0 | 11.3 | 0.00 | 0.00 | 0.00 | 22 | 1003.6 |
| 20260509231517 | 23 | 93 | 0.0 | 8.0 | 0.00 | 0.00 | 0.00 | 22 | 1003.2 |
| 20260509230017 | 22 | 182 | 0.0 | 11.3 | 0.00 | 0.00 | 0.00 | 23 | 1003.3 |
| 20260509224518 | 22 | 113 | 0.0 | 12.9 | 0.00 | 0.00 | 0.00 | 22 | 1003.3 |
| 20260509223017 | 22 | 91 | 0.0 | 6.4 | 0.00 | 0.00 | 0.00 | 21 | 1003.1 |
| 20260509221516 | 22 | 103 | 0.0 | 8.0 | 0.00 | 0.00 | 0.00 | 23 | 1003.2 |
| 20260509220020 | 22 | 125 | 0.0 | 6.4 | 0.00 | 0.00 | 0.00 | 23 | 1003.0 |
| 20260509214514 | 22 | 84 | 0.0 | 9.7 | 0.00 | 0.00 | 0.00 | 22 | 1002.9 |
| 20260509213013 | 23 | 90 | 0.0 | 6.4 | 0.00 | 0.00 | 0.00 | 20 | 1002.8 |
| 20260509211511 | 22 | 51 | 0.0 | 8.0 | 0.00 | 0.00 | 0.00 | 23 | 1003.1 |
| 20260509210010 | 22 | 71 | 0.0 | 9.7 | 0.00 | 0.00 | 0.00 | 23 | 1003.3 |